Nine-0-nine — WDF7816 — position and weather

sailwx.info

Track history (hours):
 
Tides and Currents Weather Stations Pressure Air Temp Water Temp Dewpoint Dewpoint Depression Visibility Wind Speed Wind Dir Waves Ship Positions

Nine-0-nine

Owner: Warn, Mike, Aurora, OR. More information available from US FCC via Universal Licensing System and Coast Guard Vessel Documentation Center.

Last reported at 2017-Sep-13 23:43 UTC. Time now 2017-Sep-24 14:12 UTC.
Position N 33°53' W 118°53'.
Warning: this ship's position is 10 days out of date.

Type: Ship. MMSI: 366678000.

Date/timePositionNaut miles runAvg speedWind from/ knotsBaromVisibWave heightAir tempDewpointWater temp
2017-Sep-13 23:43N 33°53' W 118°53'311.7
2017-Sep-13 23:30N 33°54' W 118°56'611.1
2017-Sep-13 23:00N 33°57' W 119°02'611.0
2017-Sep-13 22:30N 33°59' W 119°08'610.8
2017-Sep-13 22:00N 34°01' W 119°14'510.6
2017-Sep-13 21:30N 34°03' W 119°20'510.3
2017-Sep-13 20:59N 34°05' W 119°26'5 9.8
2017-Sep-13 20:30N 34°07' W 119°31'610.4
2017-Sep-13 19:54N 34°10' W 119°38'510.3
2017-Sep-13 19:25N 34°12' W 119°43'510.1
2017-Sep-13 18:53N 34°14' W 119°49'4 9.9
2017-Sep-13 18:27N 34°16' W 119°54'510.1
2017-Sep-13 18:00N 34°17' W 119°59'510.2
2017-Sep-13 17:30N 34°19' W 120°05'510.0
2017-Sep-13 16:59N 34°20' W 120°11'5 9.8
2017-Sep-13 16:28N 34°22' W 120°17'510.0
2017-Sep-13 15:58N 34°24' W 120°22'510.2
2017-Sep-13 15:30N 34°25' W 120°28'713.3
2017-Sep-13 14:59N 34°29' W 120°35'713.4
2017-Sep-13 14:29N 34°34' W 120°41'613.1
2017-Sep-13 14:00N 34°38' W 120°46'712.8
2017-Sep-13 13:27N 34°43' W 120°52'4 9.3
2017-Sep-13 13:00N 34°47' W 120°54'5 9.5
2017-Sep-13 12:29N 34°51' W 120°57'5 9.7
2017-Sep-13 12:00N 34°55' W 121°01'5 9.8
2017-Sep-13 11:29N 34°59' W 121°04'5 9.5
2017-Sep-13 11:00N 35°04' W 121°06'510.0
2017-Sep-13 10:30N 35°08' W 121°09'58 9.9
2017-Sep-13 04:40N 35°58' W 121°45'310.0
2017-Sep-13 04:25N 36°00' W 121°47'410.2
2017-Sep-13 04:00N 36°04' W 121°50'510.0
2017-Sep-13 03:30N 36°08' W 121°53'5 9.9
2017-Sep-13 03:00N 36°12' W 121°56'5 9.8
2017-Sep-13 02:30N 36°16' W 121°60'5 9.8
2017-Sep-13 02:00N 36°21' W 122°03'5 9.9
2017-Sep-13 01:30N 36°25' W 122°06'510.0
2017-Sep-13 01:00N 36°29' W 122°08'5 9.9
2017-Sep-13 00:28N 36°34' W 122°11'7 9.7
2017-Sep-12 23:44N 36°41' W 122°15'3 9.1
2017-Sep-12 23:24N 36°43' W 122°17'4 8.9
2017-Sep-12 23:00N 36°46' W 122°19'37 9.7
2017-Sep-12 19:13N 37°19' W 122°39'2210.0
2017-Sep-12 17:02N 37°39' W 122°52'110.7
2017-Sep-12 16:59N 37°39' W 122°52'510.4
2017-Sep-12 16:29N 37°44' W 122°55'613.4
2017-Sep-12 16:00N 37°50' W 122°59'713.3
2017-Sep-12 15:29N 37°56' W 123°03'5 9.2
2017-Sep-12 14:59N 37°60' W 123°05'6 9.1
2017-Sep-12 14:19N 38°05' W 123°09'3 9.6
2017-Sep-12 14:00N 38°08' W 123°11'5 9.8
2017-Sep-12 13:30N 38°12' W 123°14'5 9.6
2017-Sep-12 13:00N 38°16' W 123°17'5 9.9
2017-Sep-12 12:30N 38°20' W 123°20'510.0
2017-Sep-12 12:00N 38°25' W 123°24'  
2017-Sep-09 21:34N 48°26' W 124°46'1 9.5
2017-Sep-09 21:30N 48°26' W 124°45'5 9.6
2017-Sep-09 21:00N 48°25' W 124°38'611.0
2017-Sep-09 20:30N 48°24' W 124°30'3811.7
2017-Sep-09 17:15N 48°11' W 123°36'412.1
2017-Sep-09 16:54N 48°10' W 123°30'411.2
2017-Sep-09 16:30N 48°09' W 123°24'2 0.2
2017-Sep-09 01:38N 48°08' W 123°27'212.7
2017-Sep-09 01:30N 48°08' W 123°25'1411.9
2017-Sep-09 00:20N 48°20' W 123°14'411.0
2017-Sep-09 00:00N 48°24' W 123°14'611.8
2017-Sep-08 23:30N 48°29' W 123°13'611.9
2017-Sep-08 23:00N 48°35' W 123°13'  
Track history (hours):
 
Tides and Currents Weather Stations Pressure Air Temp Water Temp Dewpoint Dewpoint Depression Visibility Wind Speed Wind Dir Waves Ship Positions

Nine-0-nine

Owner: Warn, Mike, Aurora, OR. More information available from US FCC via Universal Licensing System and Coast Guard Vessel Documentation Center.

Last reported at 2017-Sep-13 23:43 UTC. Time now 2017-Sep-24 14:12 UTC.
Position N 33°53' W 118°53'.
Warning: this ship's position is 10 days out of date.

Type: Ship. MMSI: 366678000.

Date/timePositionNaut miles runAvg speedWind from/ knotsBaromVisibWave heightAir tempDewpointWater temp
2017-Sep-13 23:43N 33°53' W 118°53'311.7
2017-Sep-13 23:30N 33°54' W 118°56'611.1
2017-Sep-13 23:00N 33°57' W 119°02'611.0
2017-Sep-13 22:30N 33°59' W 119°08'610.8
2017-Sep-13 22:00N 34°01' W 119°14'510.6
2017-Sep-13 21:30N 34°03' W 119°20'510.3
2017-Sep-13 20:59N 34°05' W 119°26'5 9.8
2017-Sep-13 20:30N 34°07' W 119°31'610.4
2017-Sep-13 19:54N 34°10' W 119°38'510.3
2017-Sep-13 19:25N 34°12' W 119°43'510.1
2017-Sep-13 18:53N 34°14' W 119°49'4 9.9
2017-Sep-13 18:27N 34°16' W 119°54'510.1
2017-Sep-13 18:00N 34°17' W 119°59'510.2
2017-Sep-13 17:30N 34°19' W 120°05'510.0
2017-Sep-13 16:59N 34°20' W 120°11'5 9.8
2017-Sep-13 16:28N 34°22' W 120°17'510.0
2017-Sep-13 15:58N 34°24' W 120°22'510.2
2017-Sep-13 15:30N 34°25' W 120°28'713.3
2017-Sep-13 14:59N 34°29' W 120°35'713.4
2017-Sep-13 14:29N 34°34' W 120°41'613.1
2017-Sep-13 14:00N 34°38' W 120°46'712.8
2017-Sep-13 13:27N 34°43' W 120°52'4 9.3
2017-Sep-13 13:00N 34°47' W 120°54'5 9.5
2017-Sep-13 12:29N 34°51' W 120°57'5 9.7
2017-Sep-13 12:00N 34°55' W 121°01'5 9.8
2017-Sep-13 11:29N 34°59' W 121°04'5 9.5
2017-Sep-13 11:00N 35°04' W 121°06'510.0
2017-Sep-13 10:30N 35°08' W 121°09'58 9.9
2017-Sep-13 04:40N 35°58' W 121°45'310.0
2017-Sep-13 04:25N 36°00' W 121°47'410.2
2017-Sep-13 04:00N 36°04' W 121°50'510.0
2017-Sep-13 03:30N 36°08' W 121°53'5 9.9
2017-Sep-13 03:00N 36°12' W 121°56'5 9.8
2017-Sep-13 02:30N 36°16' W 121°60'5 9.8
2017-Sep-13 02:00N 36°21' W 122°03'5 9.9
2017-Sep-13 01:30N 36°25' W 122°06'510.0
2017-Sep-13 01:00N 36°29' W 122°08'5 9.9
2017-Sep-13 00:28N 36°34' W 122°11'7 9.7
2017-Sep-12 23:44N 36°41' W 122°15'3 9.1
2017-Sep-12 23:24N 36°43' W 122°17'4 8.9
2017-Sep-12 23:00N 36°46' W 122°19'37 9.7
2017-Sep-12 19:13N 37°19' W 122°39'2210.0
2017-Sep-12 17:02N 37°39' W 122°52'110.7
2017-Sep-12 16:59N 37°39' W 122°52'510.4
2017-Sep-12 16:29N 37°44' W 122°55'613.4
2017-Sep-12 16:00N 37°50' W 122°59'713.3
2017-Sep-12 15:29N 37°56' W 123°03'5 9.2
2017-Sep-12 14:59N 37°60' W 123°05'6 9.1
2017-Sep-12 14:19N 38°05' W 123°09'3 9.6
2017-Sep-12 14:00N 38°08' W 123°11'5 9.8
2017-Sep-12 13:30N 38°12' W 123°14'5 9.6
2017-Sep-12 13:00N 38°16' W 123°17'5 9.9
2017-Sep-12 12:30N 38°20' W 123°20'510.0
2017-Sep-12 12:00N 38°25' W 123°24'  
2017-Sep-09 21:34N 48°26' W 124°46'1 9.5
2017-Sep-09 21:30N 48°26' W 124°45'5 9.6
2017-Sep-09 21:00N 48°25' W 124°38'611.0
2017-Sep-09 20:30N 48°24' W 124°30'3811.7
2017-Sep-09 17:15N 48°11' W 123°36'412.1
2017-Sep-09 16:54N 48°10' W 123°30'411.2
2017-Sep-09 16:30N 48°09' W 123°24'2 0.2
2017-Sep-09 01:38N 48°08' W 123°27'212.7
2017-Sep-09 01:30N 48°08' W 123°25'1411.9
2017-Sep-09 00:20N 48°20' W 123°14'411.0
2017-Sep-09 00:00N 48°24' W 123°14'611.8
2017-Sep-08 23:30N 48°29' W 123°13'611.9
2017-Sep-08 23:00N 48°35' W 123°13'  

Dump ship's entire track history